Time;durP1;ratioP1;P1;durP2;ratioP2;P2;SDS_P1;SDS_P2;PMS_P1;PMS_P2;Temp;Humidity;BMP_temperature;BMP_pressure;BME280_temperature;BME280_humidity;BME280_pressure;Samples;Min_cycle;Max_cycle;Signal;HPM_P1;HPM_P2
2022/05/25 00:01:11;;;;;;;2.63;1.53;;;;;;;19.14;52.74;98450.69;6966938;28;20211;-81
2022/05/25 00:04:33;;;;;;;1.70;1.60;;;;;;;18.80;54.06;98441.25;6964569;28;20230;-81
2022/05/25 00:07:54;;;;;;;2.03;1.30;;;;;;;19.15;53.56;98460.53;6954026;28;20202;-81
2022/05/25 00:11:17;;;;;;;1.70;1.30;;;;;;;18.99;52.93;98458.03;6952926;28;20214;-81
2022/05/25 00:14:40;;;;;;;6.20;1.60;;;;;;;18.77;54.45;98446.44;6951493;28;20206;-81
2022/05/25 00:18:02;;;;;;;3.67;1.90;;;;;;;18.87;53.86;98441.03;6951887;28;20223;-81
2022/05/25 00:21:24;;;;;;;1.60;1.50;;;;;;;18.76;53.21;98414.75;6950413;28;20250;-81
2022/05/25 00:24:45;;;;;;;1.80;1.70;;;;;;;19.30;52.65;98455.16;6951398;28;20210;-81
2022/05/25 00:28:09;;;;;;;1.60;1.50;;;;;;;19.11;53.16;98466.81;6949268;28;20268;-81
2022/05/25 00:31:32;;;;;;;1.90;1.67;;;;;;;18.69;52.48;98384.16;6950484;28;20199;-81
2022/05/25 00:34:54;;;;;;;3.07;1.70;;;;;;;18.86;53.36;98461.25;6932156;28;20715;-81
2022/05/25 00:38:15;;;;;;;2.10;1.40;;;;;;;18.84;53.83;98460.66;6948151;28;20265;-81
2022/05/25 00:41:37;;;;;;;5.73;1.80;;;;;;;18.77;53.76;98460.94;6948399;28;20207;-81
2022/05/25 00:44:59;;;;;;;3.60;1.40;;;;;;;18.85;53.52;98452.22;6931839;28;20203;-80
2022/05/25 00:48:24;;;;;;;1.73;1.63;;;;;;;18.61;54.05;98452.91;6923256;28;20320;-80
2022/05/25 00:51:50;;;;;;;1.97;1.57;;;;;;;18.93;53.23;98487.22;6935616;28;20204;-81
2022/05/25 00:55:13;;;;;;;2.53;1.43;;;;;;;18.90;53.24;98495.13;6965455;28;20220;-81
2022/05/25 00:58:35;;;;;;;1.57;1.47;;;;;;;18.44;54.11;98498.66;6948628;28;20243;-80
2022/05/25 01:01:57;;;;;;;2.20;1.37;;;;;;;18.93;53.28;98500.06;6958068;28;20211;-81
2022/05/25 01:05:31;;;;;;;5.67;1.53;;;;;;;18.77;53.57;98480.06;6971721;28;20219;-82
2022/05/25 01:09:00;;;;;;;1.70;1.60;;;;;;;18.93;53.50;98491.88;6970908;28;20227;-82
2022/05/25 01:12:33;;;;;;;3.87;1.53;;;;;;;18.93;53.60;98497.34;6944320;28;20206;-81
2022/05/25 01:16:01;;;;;;;1.50;1.40;;;;;;;18.96;53.55;98496.78;6927521;28;20199;-81
2022/05/25 01:19:39;;;;;;;1.97;1.50;;;;;;;18.69;53.38;98455.97;6944010;28;20237;-81
2022/05/25 01:23:32;;;;;;;1.33;1.30;;;;;;;18.79;53.52;98510.66;6953693;28;20612;-81
2022/05/25 01:27:04;;;;;;;3.47;1.57;;;;;;;18.79;54.08;98515.28;6947816;28;20330;-81
2022/05/25 01:30:29;;;;;;;1.73;1.60;;;;;;;18.81;54.10;98510.38;6936265;28;20218;-81
2022/05/25 01:33:55;;;;;;;3.57;1.50;;;;;;;18.86;53.94;98511.22;6944827;28;20218;-81
2022/05/25 01:37:19;;;;;;;3.17;1.53;;;;;;;18.72;53.57;98492.84;6938343;28;20232;-81
2022/05/25 01:40:44;;;;;;;3.63;1.70;;;;;;;18.72;54.03;98511.97;6925744;28;20231;-81
2022/05/25 01:44:08;;;;;;;5.20;1.70;;;;;;;18.68;54.65;98511.66;6943227;28;20204;-81
2022/05/25 01:47:33;;;;;;;1.70;1.60;;;;;;;18.84;54.21;98502.47;6953597;28;20207;-81
2022/05/25 01:51:00;;;;;;;1.80;1.70;;;;;;;18.89;53.70;98510.72;6952035;28;20680;-81
2022/05/25 01:54:31;;;;;;;1.57;1.47;;;;;;;18.82;52.98;98460.13;6938202;28;20235;-80
2022/05/25 01:57:55;;;;;;;3.17;1.67;;;;;;;19.01;52.99;98521.41;6945797;28;20228;-80
2022/05/25 02:01:17;;;;;;;3.07;1.40;;;;;;;18.88;53.23;98502.78;6947814;28;20211;-81
2022/05/25 02:04:39;;;;;;;2.00;1.90;;;;;;;18.71;53.79;98510.31;6925525;28;20302;-81
2022/05/25 02:08:11;;;;;;;2.17;1.40;;;;;;;18.72;54.49;98515.53;6924763;28;20207;-81
2022/05/25 02:11:35;;;;;;;2.03;1.43;;;;;;;18.51;55.10;98529.31;6931391;28;20203;-80
2022/05/25 02:15:02;;;;;;;1.60;1.47;;;;;;;18.57;54.79;98522.81;6952763;28;20218;-80
2022/05/25 02:18:32;;;;;;;1.97;1.60;;;;;;;18.76;54.30;98516.63;6924959;28;20291;-81
2022/05/25 02:21:57;;;;;;;1.37;1.37;;;;;;;18.73;54.39;98516.31;6934095;28;20241;-81
2022/05/25 02:25:23;;;;;;;1.73;1.63;;;;;;;18.62;55.01;98512.72;6951169;28;20580;-80
2022/05/25 02:28:48;;;;;;;1.50;1.40;;;;;;;18.63;54.98;98516.28;6924834;28;20255;-81
2022/05/25 02:32:13;;;;;;;3.80;1.60;;;;;;;18.42;55.34;98504.41;6934954;28;20211;-80
2022/05/25 02:35:36;;;;;;;2.67;1.70;;;;;;;18.47;55.11;98514.53;6953018;28;20280;-81
2022/05/25 02:38:59;;;;;;;2.47;1.60;;;;;;;18.70;54.52;98506.75;6952881;28;20237;-81
2022/05/25 02:42:20;;;;;;;1.60;1.50;;;;;;;18.92;53.68;98512.91;6952740;28;20345;-81
2022/05/25 02:45:43;;;;;;;1.50;1.40;;;;;;;18.70;54.50;98520.41;6953244;28;20284;-81
2022/05/25 02:49:04;;;;;;;1.37;1.30;;;;;;;18.88;54.07;98541.81;6952754;28;20713;-80
2022/05/25 02:52:27;;;;;;;1.50;1.40;;;;;;;18.87;53.89;98528.44;6953453;28;20276;-82
2022/05/25 02:55:50;;;;;;;4.53;1.40;;;;;;;18.64;54.21;98518.72;6952068;28;20211;-80
2022/05/25 02:59:11;;;;;;;1.33;1.33;;;;;;;18.76;54.04;98527.53;6956902;28;20251;-81
2022/05/25 03:02:33;;;;;;;8.77;1.97;;;;;;;18.19;54.94;98460.25;6957982;28;20215;-81
2022/05/25 03:05:55;;;;;;;2.37;1.80;;;;;;;18.82;54.00;98542.06;6951505;28;20284;-80
2022/05/25 03:09:16;;;;;;;2.67;2.13;;;;;;;18.79;53.83;98561.72;6950150;28;20227;-81
2022/05/25 03:12:39;;;;;;;4.30;1.73;;;;;;;18.22;55.68;98561.50;6950853;28;20245;-80
2022/05/25 03:16:01;;;;;;;1.83;1.60;;;;;;;18.28;55.97;98557.75;6952474;28;20683;-80
2022/05/25 03:19:23;;;;;;;2.73;1.40;;;;;;;18.62;54.62;98555.56;6951185;28;20242;-81
2022/05/25 03:22:45;;;;;;;4.63;2.07;;;;;;;18.23;54.71;98494.94;6951740;28;20576;-81
2022/05/25 03:26:07;;;;;;;3.37;1.93;;;;;;;18.59;54.96;98558.84;6948991;28;20253;-80
2022/05/25 03:29:30;;;;;;;3.33;1.70;;;;;;;18.40;54.85;98536.59;6925008;28;20712;-81
2022/05/25 03:32:52;;;;;;;1.83;1.73;;;;;;;18.52;55.00;98569.97;6943551;28;20275;-81
2022/05/25 03:36:14;;;;;;;3.13;2.10;;;;;;;17.80;56.65;98574.19;6952249;28;20211;-81
2022/05/25 03:39:35;;;;;;;2.10;1.47;;;;;;;18.17;56.00;98547.00;6951898;28;20238;-81
2022/05/25 03:42:57;;;;;;;7.53;2.17;;;;;;;17.77;57.31;98582.06;6932835;28;20211;-81
2022/05/25 03:46:20;;;;;;;4.23;1.70;;;;;;;18.25;56.48;98582.00;6925194;28;20210;-81
2022/05/25 03:49:42;;;;;;;2.30;1.77;;;;;;;18.33;55.70;98576.13;6925289;28;20238;-81
2022/05/25 03:53:04;;;;;;;1.70;1.60;;;;;;;18.15;56.46;98585.47;6941836;28;20606;-80
2022/05/25 03:56:26;;;;;;;1.80;1.70;;;;;;;18.29;56.21;98585.88;6951976;28;20265;-81
2022/05/25 03:59:47;;;;;;;1.70;1.60;;;;;;;18.48;55.14;98596.19;6950795;28;20721;-81
2022/05/25 04:03:12;;;;;;;3.20;1.90;;;;;;;18.59;54.63;98608.00;6948612;28;20695;-80
2022/05/25 04:06:34;;;;;;;2.57;1.73;;;;;;;18.00;56.37;98598.97;6951878;28;20220;-81
2022/05/25 04:09:55;;;;;;;4.70;1.90;;;;;;;18.12;56.17;98598.81;6950515;28;20237;-81
2022/05/25 04:13:19;;;;;;;2.00;1.73;;;;;;;18.14;56.86;98605.66;6950939;28;20655;-81
2022/05/25 04:16:40;;;;;;;1.80;1.70;;;;;;;17.39;58.49;98623.88;6951348;28;20197;-80
2022/05/25 04:20:05;;;;;;;5.93;2.30;;;;;;;18.27;56.45;98620.81;6950158;28;20680;-80
2022/05/25 04:23:28;;;;;;;4.50;2.20;;;;;;;18.06;56.10;98592.50;6950755;28;20285;-82
2022/05/25 04:26:50;;;;;;;2.60;1.80;;;;;;;18.39;55.82;98618.75;6937499;28;20234;-80
2022/05/25 04:30:14;;;;;;;2.17;1.50;;;;;;;18.43;55.22;98628.91;6940505;28;20227;-81
2022/05/25 04:33:36;;;;;;;2.10;1.43;;;;;;;18.17;56.01;98628.88;6950958;28;20217;-81
2022/05/25 04:37:48;;;;;;;4.10;1.70;;;;;;;18.17;55.86;98639.78;6951029;28;20202;-81
2022/05/25 04:40:42;;;;;;;3.50;1.47;;;;;;;18.32;55.46;98642.69;6949878;28;20360;-80
2022/05/25 04:44:04;;;;;;;1.50;1.40;;;;;;;18.36;54.90;98649.28;6950552;28;20209;-81
2022/05/25 04:47:26;;;;;;;1.50;1.40;;;;;;;18.41;54.89;98652.06;6949838;28;20206;-80
2022/05/25 04:50:49;;;;;;;1.73;1.63;;;;;;;18.22;55.40;98658.97;6944369;28;20228;-81
2022/05/25 04:54:12;;;;;;;2.10;1.90;;;;;;;18.35;55.35;98662.09;6932505;28;20223;-80
2022/05/25 04:57:32;;;;;;;3.90;1.70;;;;;;;17.90;56.40;98647.97;6949611;28;20227;-81
2022/05/25 05:00:54;;;;;;;3.47;1.90;;;;;;;18.50;54.56;98656.81;6952255;28;20219;-80
2022/05/25 05:04:16;;;;;;;2.47;1.77;;;;;;;18.96;53.58;98682.59;6950717;28;20213;-81
2022/05/25 05:07:39;;;;;;;2.57;2.37;;;;;;;18.88;53.36;98666.69;6950237;28;20213;-81
2022/05/25 05:11:09;;;;;;;1.60;1.50;;;;;;;18.88;53.37;98680.34;6948715;28;20309;-82
2022/05/25 05:14:31;;;;;;;4.20;1.83;;;;;;;18.95;53.48;98698.19;6949330;28;20191;-81
2022/05/25 05:17:53;;;;;;;3.47;2.00;;;;;;;18.97;53.69;98697.88;6948397;28;20230;-81
2022/05/25 05:21:14;;;;;;;1.80;1.70;;;;;;;19.00;52.68;98703.69;6937358;28;20682;-80
2022/05/25 05:24:36;;;;;;;2.93;1.63;;;;;;;19.04;52.83;98712.19;6949708;28;20205;-86
2022/05/25 05:28:04;;;;;;;2.43;1.60;;;;;;;18.91;53.13;98723.53;6949343;28;20273;-81
2022/05/25 05:31:26;;;;;;;2.43;2.23;;;;;;;19.05;52.04;98722.03;6950775;28;20203;-83
2022/05/25 05:34:48;;;;;;;1.97;1.80;;;;;;;18.97;52.46;98726.06;6950221;28;20681;-81
2022/05/25 05:38:09;;;;;;;3.00;1.80;;;;;;;19.28;51.67;98727.16;6948258;28;20231;-81
2022/05/25 05:41:34;;;;;;;3.43;1.77;;;;;;;19.21;51.98;98689.09;6941570;28;20215;-81
2022/05/25 05:45:01;;;;;;;1.53;1.43;;;;;;;19.10;52.66;98719.34;6947794;28;20215;-82
2022/05/25 05:48:25;;;;;;;1.60;1.50;;;;;;;19.13;51.89;98736.03;6930542;28;20684;-81
2022/05/25 05:51:46;;;;;;;2.10;1.57;;;;;;;19.71;51.62;98737.81;6931092;28;20196;-81
2022/05/25 05:55:09;;;;;;;2.43;1.57;;;;;;;19.98;50.78;98739.31;6946016;28;20239;-81
2022/05/25 05:58:31;;;;;;;2.20;1.40;;;;;;;19.92;50.06;98732.19;6967594;28;20333;-81
2022/05/25 06:01:53;;;;;;;1.57;1.47;;;;;;;19.77;50.42;98742.22;6959974;28;20214;-80
2022/05/25 06:05:15;;;;;;;1.83;1.60;;;;;;;19.98;50.40;98728.38;6972206;28;20206;-80
2022/05/25 06:08:37;;;;;;;2.40;1.57;;;;;;;20.45;48.70;98748.28;6971473;28;20234;-80
2022/05/25 06:11:58;;;;;;;3.07;1.57;;;;;;;20.08;48.71;98670.13;6960232;28;20202;-80
2022/05/25 06:22:40;;;;;;;1.50;1.40;;;;;;;21.12;47.07;98750.91;6955266;28;20226;-80
2022/05/25 06:26:01;;;;;;;4.57;1.47;;;;;;;22.26;42.99;98758.97;6955501;28;20210;-80
2022/05/25 06:29:23;;;;;;;1.77;1.50;;;;;;;22.95;39.68;98767.13;6955335;28;20220;-80
2022/05/25 06:32:45;;;;;;;1.63;1.40;;;;;;;22.31;39.81;98749.84;6955834;28;20670;-80
2022/05/25 06:36:19;;;;;;;2.43;1.50;;;;;;;22.50;41.05;98759.97;6968600;28;20210;-80
2022/05/25 06:39:41;;;;;;;1.80;1.30;;;;;;;22.99;38.55;98769.00;6967731;28;20234;-80
2022/05/25 06:43:03;;;;;;;1.90;1.20;;;;;;;22.45;39.41;98775.63;6958337;28;20198;-81
2022/05/25 06:46:24;;;;;;;1.30;1.20;;;;;;;23.39;37.41;98785.22;6961855;28;20222;-80
2022/05/25 06:49:46;;;;;;;1.57;1.47;;;;;;;23.21;36.90;98777.69;6966565;28;20222;-81
2022/05/25 06:53:09;;;;;;;4.83;1.60;;;;;;;22.25;39.07;98778.47;6968900;28;20217;-80
2022/05/25 06:56:31;;;;;;;8.37;1.70;;;;;;;22.35;39.17;98783.88;6967831;28;20213;-80
2022/05/25 06:59:52;;;;;;;2.40;1.50;;;;;;;22.65;38.31;98797.53;6974362;28;20235;-81
2022/05/25 07:03:14;;;;;;;2.63;1.50;;;;;;;22.62;37.67;98798.94;6964645;28;20205;-80
2022/05/25 07:06:37;;;;;;;2.27;1.47;;;;;;;22.61;37.12;98733.25;6960463;28;20259;-81
2022/05/25 07:10:00;;;;;;;2.60;1.70;;;;;;;22.54;37.84;98755.53;6963450;28;20288;-80
2022/05/25 07:13:21;;;;;;;2.20;1.50;;;;;;;22.11;39.30;98800.19;6964259;28;20204;-81
2022/05/25 07:16:43;;;;;;;4.27;1.60;;;;;;;22.87;38.41;98792.44;6961070;28;20196;-81
2022/05/25 07:20:09;;;;;;;3.53;1.63;;;;;;;22.98;37.88;98799.53;6954502;28;20234;-80
2022/05/25 07:23:31;;;;;;;2.60;1.50;;;;;;;23.82;37.30;98814.56;6952241;28;20231;-79
2022/05/25 07:26:54;;;;;;;1.87;1.60;;;;;;;24.31;36.22;98814.34;6952516;28;20202;-80
2022/05/25 07:30:16;;;;;;;1.90;1.40;;;;;;;23.88;35.56;98812.59;6952209;28;20231;-80
2022/05/25 07:33:40;;;;;;;2.93;1.47;;;;;;;24.24;34.57;98740.28;6951920;28;20654;-79
2022/05/25 07:37:04;;;;;;;2.73;1.63;;;;;;;24.47;34.85;98789.06;6952243;28;20702;-80
2022/05/25 07:40:31;;;;;;;2.90;1.60;;;;;;;25.18;34.51;98811.81;6950838;28;20262;-81
2022/05/25 07:43:57;;;;;;;2.97;1.73;;;;;;;25.19;33.79;98818.16;6952048;28;20191;-81
2022/05/25 07:47:19;;;;;;;4.37;1.43;;;;;;;25.23;32.12;98800.69;6951353;28;20221;-80
2022/05/25 07:50:41;;;;;;;1.40;1.30;;;;;;;24.54;33.95;98817.09;6951273;28;20262;-80
2022/05/25 07:54:03;;;;;;;3.83;1.50;;;;;;;24.65;33.30;98801.28;6951667;28;20804;-80
2022/05/25 07:57:25;;;;;;;2.93;1.40;;;;;;;25.25;33.32;98808.72;6951953;28;20272;-80
2022/05/25 08:00:49;;;;;;;3.60;1.77;;;;;;;25.59;33.15;98814.81;6952249;28;20231;-80
2022/05/25 08:07:50;;;;;;;2.87;1.50;;;;;;;25.39;32.87;98827.00;6951559;28;20190;-80
2022/05/25 08:11:13;;;;;;;1.80;1.40;;;;;;;25.50;31.78;98822.94;6951933;28;20271;-80
2022/05/25 08:14:35;;;;;;;3.43;1.70;;;;;;;25.68;32.21;98811.03;6951581;28;20214;-81
2022/05/25 08:17:58;;;;;;;4.17;1.80;;;;;;;26.01;31.83;98812.66;6951833;28;20706;-81
2022/05/25 08:21:20;;;;;;;1.60;1.50;;;;;;;25.91;31.14;98815.63;6952030;28;20212;-80
2022/05/25 08:24:43;;;;;;;3.17;1.60;;;;;;;25.30;32.35;98770.81;6954500;28;20194;-80
2022/05/25 08:28:05;;;;;;;3.00;1.50;;;;;;;26.76;31.04;98797.34;6952090;28;20229;-81
2022/05/25 08:31:27;;;;;;;1.63;1.50;;;;;;;26.16;30.41;98809.63;6951803;28;20200;-81
2022/05/25 08:34:50;;;;;;;5.30;1.60;;;;;;;25.99;31.02;98806.63;6951709;28;20202;-80
2022/05/25 08:38:12;;;;;;;4.57;1.63;;;;;;;26.17;31.39;98814.03;6951220;28;20238;-80
2022/05/25 08:41:35;;;;;;;1.60;1.50;;;;;;;25.87;30.44;98797.97;6950631;28;20198;-78
2022/05/25 08:44:57;;;;;;;1.73;1.63;;;;;;;25.36;31.88;98810.22;6950156;28;20212;-81
2022/05/25 08:48:21;;;;;;;2.80;1.50;;;;;;;25.17;31.80;98817.63;6948707;28;20245;-79
2022/05/25 08:51:47;;;;;;;1.70;1.60;;;;;;;26.41;31.52;98808.28;6948838;28;20219;-80
2022/05/25 08:55:12;;;;;;;2.77;1.97;;;;;;;25.90;30.84;98813.97;6949869;28;20203;-80
2022/05/25 08:58:40;;;;;;;3.40;1.80;;;;;;;26.59;30.54;98804.63;6960599;28;20587;-80
2022/05/25 09:02:03;;;;;;;3.60;1.70;;;;;;;25.86;31.10;98814.84;6943206;28;20223;-80
2022/05/25 09:05:29;;;;;;;2.77;1.63;;;;;;;24.75;30.78;98771.63;6948091;28;20224;-80
2022/05/25 09:08:59;;;;;;;1.83;1.50;;;;;;;25.87;30.45;98805.44;6947964;28;20235;-80
2022/05/25 09:12:25;;;;;;;3.23;1.50;;;;;;;25.43;30.24;98788.56;6949626;28;20192;-79
2022/05/25 09:19:31;;;;;;;2.13;1.50;;;;;;;26.13;29.59;98799.16;6925940;28;20715;-78
2022/05/25 09:22:53;;;;;;;4.10;1.40;;;;;;;26.56;29.27;98775.66;6952960;28;20218;-79
2022/05/25 09:26:16;;;;;;;2.10;1.40;;;;;;;26.77;28.16;98796.22;6948968;28;20293;-79
2022/05/25 09:29:40;;;;;;;1.70;1.60;;;;;;;27.11;28.48;98801.25;6951198;28;20232;-80
2022/05/25 09:33:06;;;;;;;2.33;1.33;;;;;;;26.18;29.29;98801.84;6953914;28;20218;-79
2022/05/25 09:36:31;;;;;;;3.47;1.50;;;;;;;25.82;29.80;98816.56;6953825;28;20608;-80
2022/05/25 09:39:53;;;;;;;2.30;1.43;;;;;;;26.82;28.10;98803.56;6946766;28;20606;-80
2022/05/25 09:43:20;;;;;;;1.47;1.37;;;;;;;27.38;27.37;98801.22;6940152;28;20685;-80
2022/05/25 09:46:44;;;;;;;1.87;1.20;;;;;;;28.02;26.87;98806.25;6953699;28;20226;-80
2022/05/25 09:50:07;;;;;;;3.00;1.30;;;;;;;28.11;26.32;98816.22;6951665;28;20269;-80
2022/05/25 09:53:42;;;;;;;1.30;1.20;;;;;;;27.91;26.59;98821.50;6952672;28;20708;-79
2022/05/25 09:57:07;;;;;;;3.43;1.60;;;;;;;27.37;27.76;98825.28;6945026;28;20206;-78
2022/05/25 10:00:57;;;;;;;1.20;1.10;;;;;;;26.87;28.01;98823.66;6924753;28;20610;-78
2022/05/25 10:04:35;;;;;;;1.93;1.30;;;;;;;25.98;29.10;98817.97;6946760;28;20224;-78
2022/05/25 10:08:02;;;;;;;4.57;1.27;;;;;;;25.12;30.76;98824.06;6950455;28;20261;-78
2022/05/25 10:11:29;;;;;;;1.10;1.10;;;;;;;25.17;30.34;98835.00;6925216;28;20215;-78
2022/05/25 10:14:57;;;;;;;2.37;1.40;;;;;;;25.51;29.86;98837.56;6946386;28;20257;-77
2022/05/25 10:18:34;;;;;;;2.10;1.30;;;;;;;25.78;28.75;98799.78;6923328;28;20228;-77
2022/05/25 10:21:58;;;;;;;2.60;1.60;;;;;;;26.86;28.40;98824.81;6928958;28;20254;-77
2022/05/25 10:25:28;;;;;;;3.63;1.17;;;;;;;27.06;27.15;98827.13;6950892;28;20211;-78
2022/05/25 10:28:59;;;;;;;1.50;1.20;;;;;;;27.07;26.85;98817.66;6951252;28;20230;-79
2022/05/25 10:39:46;;;;;;;1.80;1.10;;;;;;;26.15;28.95;98821.81;6945255;28;20227;-78
2022/05/25 10:43:15;;;;;;;1.40;1.30;;;;;;;25.22;29.36;98826.66;6941419;28;20226;-78
2022/05/25 10:46:38;;;;;;;2.17;1.10;;;;;;;27.27;27.50;98819.19;6954777;28;20199;-79
2022/05/25 10:50:00;;;;;;;4.10;1.60;;;;;;;27.37;27.64;98816.19;6957427;28;20223;-79
2022/05/25 10:53:30;;;;;;;3.63;1.07;;;;;;;27.26;27.23;98821.13;6957357;28;20211;-79
2022/05/25 10:56:57;;;;;;;3.00;1.00;;;;;;;26.12;28.00;98808.59;6968158;28;20206;-79
2022/05/25 11:00:21;;;;;;;2.07;1.30;;;;;;;26.70;27.69;98748.78;6957581;28;20231;-78
2022/05/25 11:03:54;;;;;;;2.10;1.50;;;;;;;25.97;28.20;98810.81;6959506;28;20206;-79
2022/05/25 11:07:24;;;;;;;4.50;1.50;;;;;;;26.05;28.40;98813.72;6954015;28;20207;-78
2022/05/25 11:10:51;;;;;;;1.87;1.20;;;;;;;25.11;28.58;98814.13;6929988;28;20223;-78
2022/05/25 11:14:33;;;;;;;3.00;1.10;;;;;;;25.03;29.70;98820.34;6922446;28;20202;-78
2022/05/25 11:18:06;;;;;;;1.27;1.10;;;;;;;26.18;28.61;98818.44;6946074;28;20276;-80
2022/05/25 11:21:37;;;;;;;1.87;1.40;;;;;;;26.25;28.33;98812.50;6948991;28;20214;-78
2022/05/25 11:25:09;;;;;;;3.03;1.20;;;;;;;25.17;28.96;98821.22;6949776;28;20203;-79
2022/05/25 11:28:44;;;;;;;1.17;1.03;;;;;;;25.45;29.11;98831.31;6947016;28;20232;-79
2022/05/25 11:32:11;;;;;;;2.27;1.00;;;;;;;25.64;28.40;98820.22;6937689;28;20342;-79
2022/05/25 11:35:55;;;;;;;1.23;1.13;;;;;;;26.25;28.72;98799.47;6921686;28;20674;-79
2022/05/25 11:39:24;;;;;;;1.00;1.00;;;;;;;26.27;28.57;98813.84;6938604;28;20291;-78
2022/05/25 11:43:01;;;;;;;1.73;1.00;;;;;;;26.52;27.27;98815.25;6938350;28;20279;-78
2022/05/25 11:46:34;;;;;;;1.50;1.20;;;;;;;26.66;27.20;98818.88;6929261;28;20205;-79
2022/05/25 11:50:08;;;;;;;1.87;1.47;;;;;;;28.25;26.14;98808.63;6957196;28;20232;-79
2022/05/25 11:53:43;;;;;;;1.60;1.00;;;;;;;28.31;26.23;98793.47;6944887;28;20195;-79
2022/05/25 11:57:08;;;;;;;2.47;0.90;;;;;;;28.40;25.83;98802.69;6949302;28;20195;-79
2022/05/25 12:00:43;;;;;;;4.90;1.10;;;;;;;28.42;24.85;98791.28;6948227;28;20266;-79
2022/05/25 12:04:21;;;;;;;1.00;0.90;;;;;;;28.63;25.31;98806.19;6946131;28;20370;-79
2022/05/25 12:07:54;;;;;;;3.80;1.23;;;;;;;28.35;25.48;98785.31;6944607;28;20656;-79
2022/05/25 12:11:23;;;;;;;1.83;1.30;;;;;;;29.06;23.82;98807.13;6950972;28;20708;-79
2022/05/25 12:14:51;;;;;;;1.30;1.10;;;;;;;28.67;24.48;98810.75;6928366;28;20207;-79
2022/05/25 12:18:22;;;;;;;1.27;1.17;;;;;;;28.41;24.68;98793.22;6933799;28;20262;-79
2022/05/25 12:21:49;;;;;;;1.83;1.00;;;;;;;28.66;24.30;98809.13;6943044;28;20230;-79
2022/05/25 12:25:14;;;;;;;2.43;1.47;;;;;;;28.51;25.20;98808.75;6951928;28;20575;-79
2022/05/25 12:28:39;;;;;;;2.37;1.17;;;;;;;27.79;25.59;98799.09;6939032;28;20212;-79
2022/05/25 12:32:01;;;;;;;2.50;1.00;;;;;;;28.26;25.39;98803.91;6949501;28;20217;-80
2022/05/25 12:35:23;;;;;;;3.20;1.30;;;;;;;28.35;24.91;98796.41;6947629;28;20247;-79
2022/05/25 12:38:46;;;;;;;1.60;1.03;;;;;;;29.27;23.29;98797.84;6938541;28;20217;-80
2022/05/25 12:42:38;;;;;;;1.73;1.27;;;;;;;27.34;24.97;98800.19;6945665;28;20227;-80
2022/05/25 12:49:42;;;;;;;4.00;1.90;;;;;;;27.53;24.97;98785.03;6936584;28;20259;-80
2022/05/25 12:53:26;;;;;;;2.00;1.10;;;;;;;29.21;23.13;98784.44;6940298;28;20203;-80
2022/05/25 12:56:50;;;;;;;2.10;1.10;;;;;;;28.77;22.35;98795.78;6955920;28;20203;-80
2022/05/25 13:00:19;;;;;;;2.07;1.27;;;;;;;28.61;24.49;98794.59;6952076;28;20257;-79
2022/05/25 13:04:03;;;;;;;2.77;1.10;;;;;;;28.47;24.73;98805.81;6951573;28;20187;-80
2022/05/25 13:07:46;;;;;;;3.07;1.10;;;;;;;29.04;23.50;98798.31;6947670;28;20692;-79
2022/05/25 13:11:08;;;;;;;1.13;0.93;;;;;;;29.45;22.49;98793.09;6934427;28;20220;-79
2022/05/25 13:14:57;;;;;;;1.93;1.53;;;;;;;28.20;23.12;98783.00;6938718;28;20213;-79
2022/05/25 13:18:53;;;;;;;1.87;0.97;;;;;;;28.23;23.85;98777.63;6934706;28;20302;-79
2022/05/25 13:22:25;;;;;;;1.73;0.93;;;;;;;28.54;23.47;98767.31;6946629;28;20265;-79
2022/05/25 13:25:54;;;;;;;3.20;1.00;;;;;;;28.99;24.06;98774.28;6950140;28;20257;-80
2022/05/25 13:29:21;;;;;;;2.57;1.07;;;;;;;28.42;23.55;98774.66;6949364;28;20229;-79
2022/05/25 13:32:47;;;;;;;2.17;1.10;;;;;;;27.37;24.43;98775.44;6948251;28;20579;-79
2022/05/25 13:36:16;;;;;;;1.57;1.03;;;;;;;27.91;24.97;98779.91;6946944;28;20203;-80
2022/05/25 13:39:38;;;;;;;2.57;1.57;;;;;;;27.11;25.60;98763.34;6946702;28;20242;-80
2022/05/25 13:43:02;;;;;;;0.80;0.80;;;;;;;27.13;25.59;98761.06;6947446;28;20218;-80
2022/05/25 13:46:39;;;;;;;1.60;1.20;;;;;;;26.20;25.54;98773.91;6945804;28;20207;-80
2022/05/25 13:50:01;;;;;;;2.17;1.10;;;;;;;26.65;26.24;98773.00;6934558;28;20694;-79
2022/05/25 13:53:36;;;;;;;4.10;1.13;;;;;;;26.95;25.76;98772.31;6927522;28;20214;-79
2022/05/25 13:56:58;;;;;;;1.87;1.00;;;;;;;26.83;26.30;98781.13;6943537;28;20321;-79
2022/05/25 14:00:33;;;;;;;2.30;1.00;;;;;;;26.89;24.72;98773.56;6928323;28;20242;-80
2022/05/25 14:03:58;;;;;;;1.27;0.90;;;;;;;27.22;25.30;98737.06;6947800;28;20199;-80
2022/05/25 14:07:27;;;;;;;1.77;1.03;;;;;;;28.13;23.55;98761.25;6946605;28;20210;-80
2022/05/25 14:10:55;;;;;;;1.10;1.00;;;;;;;28.18;24.08;98772.22;6925686;28;20358;-81
2022/05/25 14:14:20;;;;;;;2.77;1.00;;;;;;;28.64;23.29;98761.47;6956041;28;20206;-80
2022/05/25 14:17:54;;;;;;;0.70;0.70;;;;;;;27.25;25.00;98777.97;6948630;28;20211;-80
2022/05/25 14:21:29;;;;;;;1.97;1.40;;;;;;;28.11;24.41;98768.25;6947575;28;20301;-80
2022/05/25 14:24:53;;;;;;;2.77;1.10;;;;;;;28.35;23.85;98772.28;6933458;28;20302;-79
2022/05/25 14:28:15;;;;;;;2.53;1.17;;;;;;;28.23;24.33;98779.56;6938940;28;20306;-79
2022/05/25 14:31:42;;;;;;;1.33;1.20;;;;;;;28.24;23.62;98779.25;6935731;28;20279;-79
2022/05/25 14:35:07;;;;;;;2.80;1.20;;;;;;;27.58;24.40;98776.59;6925938;28;20274;-79
2022/05/25 14:38:35;;;;;;;2.20;1.00;;;;;;;27.62;24.84;98766.53;6937292;28;20588;-81
2022/05/25 14:42:06;;;;;;;2.80;1.00;;;;;;;27.68;24.12;98772.75;6945632;28;20256;-80
2022/05/25 14:45:29;;;;;;;1.20;1.00;;;;;;;26.95;25.19;98767.56;6950505;28;20202;-80
2022/05/25 14:48:53;;;;;;;1.37;0.87;;;;;;;26.16;25.78;98778.38;6951780;28;20627;-79
2022/05/25 14:52:17;;;;;;;1.40;1.20;;;;;;;26.29;25.53;98775.63;6972339;28;20206;-79
2022/05/25 14:55:40;;;;;;;1.10;0.97;;;;;;;26.43;25.59;98765.38;6951755;28;20207;-80
2022/05/25 14:59:02;;;;;;;1.97;1.20;;;;;;;27.02;25.69;98776.25;6951370;28;20232;-80
2022/05/25 15:02:26;;;;;;;2.53;1.20;;;;;;;27.49;25.16;98775.69;6952176;28;20235;-79
2022/05/25 15:05:48;;;;;;;2.20;0.90;;;;;;;27.25;24.92;98777.16;6951817;28;20246;-79
2022/05/25 15:09:14;;;;;;;1.33;0.90;;;;;;;27.63;23.75;98768.16;6948427;28;20224;-80
2022/05/25 15:12:44;;;;;;;3.80;1.20;;;;;;;26.77;25.57;98749.19;6951799;28;20245;-79
2022/05/25 15:19:49;;;;;;;3.27;1.20;;;;;;;26.44;26.61;98767.03;6949987;28;20695;-80
2022/05/25 15:23:16;;;;;;;2.27;0.97;;;;;;;26.40;26.34;98776.25;6951542;28;20340;-80
2022/05/25 15:26:40;;;;;;;0.77;0.77;;;;;;;26.07;26.22;98775.53;6951630;28;20199;-80
2022/05/25 15:30:02;;;;;;;1.60;0.93;;;;;;;26.03;26.06;98781.97;6937462;28;20228;-80
2022/05/25 15:33:26;;;;;;;1.00;0.90;;;;;;;26.52;26.28;98768.25;6951401;28;20205;-80
2022/05/25 15:36:49;;;;;;;1.63;0.80;;;;;;;27.19;25.66;98781.19;6948519;28;20203;-80
2022/05/25 15:40:12;;;;;;;2.23;1.03;;;;;;;26.20;26.77;98788.53;6952518;28;20230;-79
2022/05/25 15:43:35;;;;;;;4.63;1.40;;;;;;;26.57;26.40;98784.75;6953043;28;20203;-80
2022/05/25 15:46:57;;;;;;;2.17;1.07;;;;;;;26.60;25.47;98753.75;6956531;28;20211;-81
2022/05/25 15:50:20;;;;;;;3.53;1.30;;;;;;;27.01;25.40;98780.16;6958885;28;20225;-80
2022/05/25 15:53:41;;;;;;;2.30;1.23;;;;;;;26.23;26.11;98792.63;6953449;28;20205;-80
2022/05/25 15:57:03;;;;;;;1.27;0.90;;;;;;;26.20;26.40;98776.66;6959671;28;20207;-81
2022/05/25 16:00:26;;;;;;;2.53;1.30;;;;;;;27.02;26.35;98792.06;6962752;28;20248;-80
2022/05/25 16:03:50;;;;;;;1.33;1.00;;;;;;;27.27;25.42;98784.03;6958272;28;20228;-80
2022/05/25 16:07:12;;;;;;;2.20;1.10;;;;;;;27.39;25.53;98784.28;6950197;28;20211;-80
2022/05/25 16:10:33;;;;;;;1.30;1.20;;;;;;;27.04;25.49;98798.94;6949934;28;20236;-79
2022/05/25 16:13:55;;;;;;;1.67;0.90;;;;;;;25.64;26.78;98796.19;6936529;28;20203;-78
2022/05/25 16:17:18;;;;;;;2.90;1.30;;;;;;;26.82;26.33;98786.97;6932786;28;20213;-81
2022/05/25 16:20:40;;;;;;;2.33;1.30;;;;;;;26.83;25.99;98767.31;6936341;28;20238;-80
2022/05/25 16:24:03;;;;;;;3.43;1.20;;;;;;;27.07;25.98;98767.03;6936041;28;20249;-79
2022/05/25 16:27:26;;;;;;;1.50;1.10;;;;;;;26.45;26.65;98787.19;6974527;28;20203;-79
2022/05/25 16:30:48;;;;;;;2.17;1.10;;;;;;;26.40;26.49;98804.72;6976261;28;20317;-79
2022/05/25 16:34:12;;;;;;;1.20;1.10;;;;;;;27.16;26.01;98806.72;6977107;28;20206;-79
2022/05/25 16:37:34;;;;;;;3.60;1.17;;;;;;;26.90;25.85;98803.66;6976175;28;20202;-79